Time;durP1;ratioP1;P1;durP2;ratioP2;P2;SDS_P1;SDS_P2;PMS_P1;PMS_P2;Temp;Humidity;BMP_temperature;BMP_pressure;BME280_temperature;BME280_humidity;BME280_pressure;Samples;Min_cycle;Max_cycle;Signal;HPM_P1;HPM_P2
2023/09/25 00:00:56;;;;;;;8.30;4.00;;;6.90;99.90;;;;;;5088784;28;20534;-67
2023/09/25 00:03:22;;;;;;;11.50;4.35;;;6.90;99.90;;;;;;5087799;28;20111;-67
2023/09/25 00:05:47;;;;;;;10.07;3.95;;;7.00;99.90;;;;;;5088623;28;20062;-67
2023/09/25 00:08:13;;;;;;;8.80;4.10;;;7.10;99.90;;;;;;5092472;28;20024;-67
2023/09/25 00:10:40;;;;;;;8.43;3.70;;;7.00;99.90;;;;;;5092380;28;20453;-67
2023/09/25 00:13:06;;;;;;;8.45;3.97;;;6.90;99.90;;;;;;5092696;28;20035;-67
2023/09/25 00:15:31;;;;;;;6.32;3.60;;;6.80;99.90;;;;;;5091301;28;20810;-67
2023/09/25 00:17:57;;;;;;;10.90;4.25;;;6.80;99.90;;;;;;5092755;28;20028;-67
2023/09/25 00:20:24;;;;;;;8.98;4.28;;;6.80;99.90;;;;;;5091213;28;20020;-67
2023/09/25 00:22:51;;;;;;;11.02;4.13;;;6.80;99.90;;;;;;5092522;28;20119;-67
2023/09/25 00:25:19;;;;;;;8.05;4.00;;;6.80;99.90;;;;;;5091619;28;20032;-68
2023/09/25 00:27:44;;;;;;;8.15;3.95;;;6.80;99.90;;;;;;5092386;28;20032;-66
2023/09/25 00:30:11;;;;;;;12.43;3.88;;;6.90;99.90;;;;;;5092289;28;20383;-67
2023/09/25 00:32:37;;;;;;;7.93;3.92;;;6.90;99.90;;;;;;5091663;28;20579;-67
2023/09/25 00:35:10;;;;;;;8.85;4.00;;;6.90;99.90;;;;;;5091925;28;20114;-67
2023/09/25 00:37:39;;;;;;;7.78;3.97;;;6.80;99.90;;;;;;5091354;28;20036;-67
2023/09/25 00:40:17;;;;;;;9.43;4.15;;;6.80;99.90;;;;;;5092068;28;20384;-67
2023/09/25 00:42:47;;;;;;;10.07;4.35;;;6.80;99.90;;;;;;5092009;28;20028;-67
2023/09/25 00:45:13;;;;;;;9.63;4.38;;;6.70;99.90;;;;;;5092079;28;20024;-67
2023/09/25 00:47:41;;;;;;;9.05;4.70;;;6.70;99.90;;;;;;5090910;28;20424;-66
2023/09/25 00:50:07;;;;;;;10.65;4.40;;;6.70;99.90;;;;;;5091837;28;20028;-67
2023/09/25 00:52:34;;;;;;;7.50;4.22;;;6.70;99.90;;;;;;5091282;28;20043;-67
2023/09/25 00:55:01;;;;;;;9.27;4.78;;;6.60;99.90;;;;;;5092032;28;20020;-67
2023/09/25 00:57:28;;;;;;;7.70;4.18;;;6.60;99.90;;;;;;5090541;28;20060;-67
2023/09/25 00:59:53;;;;;;;9.10;4.03;;;6.60;99.90;;;;;;5091787;28;20028;-67
2023/09/25 01:02:19;;;;;;;10.80;4.15;;;6.60;99.90;;;;;;5091149;28;20040;-67
2023/09/25 01:04:45;;;;;;;9.05;4.50;;;6.60;99.90;;;;;;5091861;28;20020;-67
2023/09/25 01:07:11;;;;;;;10.50;4.60;;;6.60;99.90;;;;;;5091588;28;20028;-67
2023/09/25 01:09:37;;;;;;;10.45;4.43;;;6.60;99.90;;;;;;5090743;28;20020;-67
2023/09/25 01:12:05;;;;;;;7.60;4.07;;;6.60;99.90;;;;;;5091318;28;20032;-67
2023/09/25 01:14:30;;;;;;;12.73;4.63;;;6.50;99.90;;;;;;5090513;28;20103;-67
2023/09/25 01:16:57;;;;;;;11.05;4.28;;;6.50;99.90;;;;;;5091429;28;20122;-67
2023/09/25 01:19:22;;;;;;;12.02;4.45;;;6.50;99.90;;;;;;5090025;28;20447;-67
2023/09/25 01:21:48;;;;;;;10.02;4.68;;;6.40;99.90;;;;;;5091426;28;20047;-67
2023/09/25 01:24:14;;;;;;;10.90;4.88;;;6.40;99.90;;;;;;5090760;28;20024;-67
2023/09/25 01:26:39;;;;;;;10.35;4.50;;;6.40;99.90;;;;;;5090915;28;20264;-67
2023/09/25 01:29:05;;;;;;;10.13;5.03;;;6.40;99.90;;;;;;5091020;28;20070;-67
2023/09/25 01:31:31;;;;;;;7.88;4.30;;;6.50;99.90;;;;;;5072078;28;20035;-67
2023/09/25 01:33:56;;;;;;;8.55;4.50;;;6.50;99.90;;;;;;5090959;28;20036;-67
2023/09/25 01:36:22;;;;;;;9.68;5.05;;;6.40;99.90;;;;;;5089808;28;20036;-68
2023/09/25 01:38:48;;;;;;;9.60;4.47;;;6.40;99.90;;;;;;5091094;28;20373;-67
2023/09/25 01:41:15;;;;;;;11.05;5.07;;;6.40;99.90;;;;;;5091207;28;20526;-67
2023/09/25 01:43:43;;;;;;;8.05;4.45;;;6.40;99.90;;;;;;5090163;28;20027;-66
2023/09/25 01:46:09;;;;;;;10.27;4.88;;;6.40;99.90;;;;;;5090772;28;20084;-67
2023/09/25 01:48:35;;;;;;;7.55;4.10;;;6.40;99.90;;;;;;5090254;28;20127;-67
2023/09/25 01:51:10;;;;;;;8.32;4.38;;;6.40;99.90;;;;;;5090409;28;20073;-67
2023/09/25 01:53:36;;;;;;;11.93;4.18;;;6.40;99.90;;;;;;5089774;28;20036;-68
2023/09/25 01:56:14;;;;;;;9.63;4.85;;;6.40;99.90;;;;;;5072473;28;20040;-67
2023/09/25 01:58:42;;;;;;;8.27;4.50;;;6.40;99.90;;;;;;5089449;28;20649;-68
2023/09/25 02:01:08;;;;;;;9.10;4.57;;;6.30;99.90;;;;;;5090813;28;20388;-67
2023/09/25 02:03:34;;;;;;;6.97;3.90;;;6.30;99.90;;;;;;5089915;28;20032;-66
2023/09/25 02:06:00;;;;;;;7.88;4.25;;;6.20;99.90;;;;;;5090566;28;20043;-66
2023/09/25 02:08:25;;;;;;;12.77;4.72;;;6.20;99.90;;;;;;5089822;28;20817;-66
2023/09/25 02:10:51;;;;;;;8.75;4.38;;;6.10;99.90;;;;;;5090324;28;20024;-67
2023/09/25 02:13:16;;;;;;;7.95;4.03;;;6.00;99.90;;;;;;5090549;28;20028;-67
2023/09/25 02:15:42;;;;;;;7.15;3.92;;;6.00;99.90;;;;;;5089084;28;20695;-67
2023/09/25 02:18:08;;;;;;;7.90;4.10;;;6.00;99.90;;;;;;5090272;28;20020;-67
2023/09/25 02:20:35;;;;;;;9.02;4.00;;;6.00;99.90;;;;;;5089073;28;20377;-67
2023/09/25 02:23:00;;;;;;;11.48;4.00;;;5.90;99.90;;;;;;5090062;28;20032;-67
2023/09/25 02:25:26;;;;;;;8.88;3.97;;;5.90;99.90;;;;;;5089397;28;20039;-67
2023/09/25 02:27:52;;;;;;;10.55;4.45;;;5.80;99.90;;;;;;5089809;28;20036;-67
2023/09/25 02:30:17;;;;;;;8.45;4.00;;;5.80;99.90;;;;;;5089030;28;20061;-67
2023/09/25 02:32:43;;;;;;;7.88;4.35;;;5.80;99.90;;;;;;5089206;28;20024;-67
2023/09/25 02:35:10;;;;;;;8.18;3.85;;;5.80;99.90;;;;;;5089503;28;20064;-67
2023/09/25 02:37:37;;;;;;;12.23;4.30;;;5.80;99.90;;;;;;5088913;28;20047;-67
2023/09/25 02:40:07;;;;;;;9.70;4.85;;;5.90;99.90;;;;;;5090033;28;20024;-67
2023/09/25 02:42:33;;;;;;;13.15;4.38;;;5.90;99.90;;;;;;5088825;28;20487;-67
2023/09/25 02:44:59;;;;;;;10.45;4.60;;;5.90;99.90;;;;;;5089444;28;20115;-67
2023/09/25 02:47:25;;;;;;;7.65;4.30;;;5.80;99.90;;;;;;5089000;28;20114;-67
2023/09/25 02:49:50;;;;;;;8.40;4.50;;;5.80;99.90;;;;;;5089671;28;20035;-67
2023/09/25 02:52:23;;;;;;;8.02;4.20;;;5.90;99.90;;;;;;5089874;27;20407;-67
2023/09/25 02:54:48;;;;;;;10.48;4.40;;;5.90;99.90;;;;;;5066722;28;20146;-66
2023/09/25 02:57:14;;;;;;;9.48;4.70;;;5.90;99.90;;;;;;5051582;28;20025;-66
2023/09/25 02:59:39;;;;;;;10.02;4.82;;;5.90;99.90;;;;;;5044915;28;20112;-66
2023/09/25 03:02:05;;;;;;;8.48;4.32;;;6.00;99.90;;;;;;5046081;28;20041;-66
2023/09/25 03:04:31;;;;;;;8.70;4.50;;;6.00;99.90;;;;;;5045173;28;20041;-66
2023/09/25 03:06:57;;;;;;;8.90;4.38;;;6.00;99.90;;;;;;5051933;28;20029;-66
2023/09/25 03:09:22;;;;;;;10.95;4.82;;;6.10;99.90;;;;;;5054105;28;20517;-66
2023/09/25 03:11:48;;;;;;;7.45;4.03;;;6.00;99.90;;;;;;5045021;28;20426;-66
2023/09/25 03:14:14;;;;;;;9.80;4.32;;;6.00;99.90;;;;;;5045706;28;20424;-67
2023/09/25 03:16:40;;;;;;;8.80;4.07;;;5.90;99.90;;;;;;5045286;28;20065;-67
2023/09/25 03:19:06;;;;;;;8.40;4.40;;;5.90;99.90;;;;;;5051267;28;20500;-66
2023/09/25 03:21:32;;;;;;;8.98;4.20;;;5.90;99.90;;;;;;5066491;28;20044;-66
2023/09/25 03:23:57;;;;;;;6.03;3.55;;;5.80;99.90;;;;;;5085821;28;20104;-65
2023/09/25 03:26:23;;;;;;;8.45;3.95;;;5.80;99.90;;;;;;5085473;28;20463;-67
2023/09/25 03:28:49;;;;;;;7.53;3.92;;;5.80;99.90;;;;;;5081745;28;20032;-66
2023/09/25 03:31:15;;;;;;;7.43;4.10;;;5.80;99.90;;;;;;5065119;28;20058;-65
2023/09/25 03:33:41;;;;;;;6.75;3.58;;;5.80;99.90;;;;;;5064359;28;20532;-66
2023/09/25 03:36:07;;;;;;;7.78;4.18;;;5.80;99.90;;;;;;5065116;28;20047;-65
2023/09/25 03:38:34;;;;;;;8.30;3.78;;;5.70;99.90;;;;;;5063825;28;20047;-66
2023/09/25 03:40:59;;;;;;;7.45;3.65;;;5.60;99.90;;;;;;5045250;28;20060;-66
2023/09/25 03:43:26;;;;;;;7.05;3.78;;;5.60;99.90;;;;;;5045048;28;20474;-67
2023/09/25 03:45:52;;;;;;;11.05;4.40;;;5.60;99.90;;;;;;5051977;28;20401;-67
2023/09/25 03:48:18;;;;;;;13.90;5.35;;;5.60;99.90;;;;;;5060277;28;20040;-67
2023/09/25 03:50:43;;;;;;;9.60;4.68;;;5.60;99.90;;;;;;5052127;28;20048;-67
2023/09/25 03:53:11;;;;;;;8.77;4.55;;;5.70;99.90;;;;;;5085377;28;20032;-67
2023/09/25 03:55:37;;;;;;;8.85;4.35;;;5.60;99.90;;;;;;5074047;28;20029;-67
2023/09/25 03:58:03;;;;;;;8.30;4.32;;;5.50;99.90;;;;;;5047515;28;20033;-66
2023/09/25 04:00:29;;;;;;;8.93;4.45;;;5.40;99.90;;;;;;5074988;28;20032;-67
2023/09/25 04:02:54;;;;;;;10.60;4.35;;;5.60;99.90;;;;;;5076364;28;20523;-66
2023/09/25 04:05:20;;;;;;;9.57;4.25;;;5.90;99.90;;;;;;5071352;28;20199;-66
2023/09/25 04:07:46;;;;;;;7.85;4.18;;;5.70;99.90;;;;;;5042370;28;20030;-66
2023/09/25 04:10:11;;;;;;;8.90;4.00;;;5.80;99.90;;;;;;5031333;28;20041;-66
2023/09/25 04:12:38;;;;;;;8.95;4.22;;;5.70;99.90;;;;;;5031531;28;20036;-66
2023/09/25 04:15:08;;;;;;;9.63;4.38;;;5.70;99.90;;;;;;5050063;28;20025;-66
2023/09/25 04:17:34;;;;;;;9.20;4.60;;;5.90;99.90;;;;;;5050463;28;20036;-66
2023/09/25 04:19:59;;;;;;;11.70;5.03;;;6.20;99.90;;;;;;5051231;28;20029;-66
2023/09/25 04:22:25;;;;;;;8.07;4.57;;;6.40;99.90;;;;;;5069618;28;20056;-66
2023/09/25 04:24:52;;;;;;;10.43;5.18;;;6.60;99.90;;;;;;5056097;28;20108;-66
2023/09/25 04:27:18;;;;;;;10.07;5.10;;;6.80;99.90;;;;;;5051195;28;20043;-67
2023/09/25 04:29:44;;;;;;;10.05;5.43;;;7.00;99.90;;;;;;5049877;28;20021;-66
2023/09/25 04:32:10;;;;;;;13.15;5.50;;;7.30;99.90;;;;;;5046287;28;20033;-66
2023/09/25 04:34:36;;;;;;;9.93;5.53;;;7.50;99.90;;;;;;5039054;28;20128;-67
2023/09/25 04:37:02;;;;;;;11.25;5.07;;;7.70;99.90;;;;;;5050475;28;20029;-66
2023/09/25 04:39:28;;;;;;;10.85;5.70;;;7.90;99.90;;;;;;5050404;28;20455;-66
2023/09/25 04:41:54;;;;;;;11.00;5.18;;;8.10;99.90;;;;;;5050355;28;20056;-66
2023/09/25 04:44:20;;;;;;;9.93;5.45;;;8.20;99.90;;;;;;5049865;28;20037;-67
2023/09/25 04:46:45;;;;;;;9.35;5.05;;;8.30;99.90;;;;;;5050033;28;20484;-68
2023/09/25 04:49:13;;;;;;;10.48;5.00;;;8.40;99.90;;;;;;5050818;28;20086;-66
2023/09/25 04:51:39;;;;;;;9.38;5.10;;;8.40;99.90;;;;;;5049123;28;20132;-67
2023/09/25 04:54:05;;;;;;;10.90;5.22;;;8.40;99.90;;;;;;5030828;28;20116;-67
2023/09/25 04:56:31;;;;;;;11.02;4.95;;;8.50;99.90;;;;;;5048854;28;20063;-66
2023/09/25 04:58:57;;;;;;;11.05;4.63;;;8.50;99.90;;;;;;5050057;28;20031;-68
2023/09/25 05:01:23;;;;;;;8.27;4.75;;;8.60;99.90;;;;;;5039418;28;20029;-67
2023/09/25 05:03:49;;;;;;;7.00;4.22;;;8.60;99.90;;;;;;5029532;28;20490;-67
2023/09/25 05:06:15;;;;;;;8.98;4.18;;;8.30;99.90;;;;;;5035967;28;20108;-67
2023/09/25 05:08:41;;;;;;;5.65;2.95;;;8.30;99.90;;;;;;5045427;28;20469;-68
2023/09/25 05:11:07;;;;;;;9.48;4.63;;;7.90;99.90;;;;;;5030393;28;20040;-66
2023/09/25 05:13:33;;;;;;;7.50;4.35;;;7.60;99.90;;;;;;5030221;28;20092;-67
2023/09/25 05:16:01;;;;;;;8.60;4.32;;;7.60;99.90;;;;;;5040679;28;20025;-68
2023/09/25 05:18:26;;;;;;;12.57;4.75;;;7.50;99.90;;;;;;5046792;28;20036;-67
2023/09/25 05:20:53;;;;;;;8.13;4.68;;;7.60;99.90;;;;;;5050031;28;20024;-68
2023/09/25 05:23:20;;;;;;;8.07;4.60;;;7.40;99.90;;;;;;5052382;28;20027;-68
2023/09/25 05:25:46;;;;;;;8.73;4.50;;;7.40;99.90;;;;;;5038021;28;20067;-68
2023/09/25 05:28:12;;;;;;;8.98;3.83;;;7.30;99.90;;;;;;5061669;28;20036;-66
2023/09/25 05:30:38;;;;;;;7.50;4.22;;;7.30;99.90;;;;;;5053686;28;20055;-68
2023/09/25 05:33:04;;;;;;;8.43;4.03;;;6.90;99.90;;;;;;5049972;28;20040;-68
2023/09/25 05:35:30;;;;;;;7.78;4.03;;;6.60;99.90;;;;;;5047995;28;20188;-67
2023/09/25 05:37:56;;;;;;;8.10;4.20;;;6.20;99.90;;;;;;5048712;28;20464;-67
2023/09/25 05:40:22;;;;;;;8.52;4.53;;;6.00;99.90;;;;;;5049800;28;20033;-67
2023/09/25 05:42:49;;;;;;;10.23;3.97;;;6.10;99.90;;;;;;5048975;28;20055;-67
2023/09/25 05:45:16;;;;;;;9.48;4.22;;;6.10;99.90;;;;;;5049421;28;20028;-67
2023/09/25 05:47:43;;;;;;;8.20;4.03;;;6.20;99.90;;;;;;5035746;28;20045;-68
2023/09/25 05:50:09;;;;;;;12.45;3.97;;;6.20;99.90;;;;;;5062272;28;20104;-67
2023/09/25 05:52:35;;;;;;;8.25;3.95;;;6.30;99.90;;;;;;5062520;28;20059;-67
2023/09/25 05:55:04;;;;;;;11.93;4.47;;;6.20;99.90;;;;;;5049267;28;20445;-67
2023/09/25 05:57:30;;;;;;;9.50;4.15;;;6.10;99.90;;;;;;5049412;28;20036;-67
2023/09/25 05:59:57;;;;;;;9.82;4.55;;;6.10;99.90;;;;;;5028882;28;20037;-68
2023/09/25 06:02:22;;;;;;;7.75;4.28;;;6.10;99.90;;;;;;5043983;28;20055;-68
2023/09/25 06:04:48;;;;;;;9.15;4.20;;;6.20;99.90;;;;;;5031181;28;20025;-68
2023/09/25 06:07:14;;;;;;;7.97;4.55;;;6.30;99.90;;;;;;5047988;28;20033;-67
2023/09/25 06:09:40;;;;;;;8.52;4.18;;;6.30;99.90;;;;;;5048614;28;20025;-68
2023/09/25 06:12:06;;;;;;;8.82;4.35;;;6.40;99.90;;;;;;5043805;28;20044;-67
2023/09/25 06:14:31;;;;;;;9.02;4.88;;;6.50;99.90;;;;;;5029165;28;20056;-67
2023/09/25 06:16:59;;;;;;;8.70;4.30;;;6.60;99.90;;;;;;5027949;28;20033;-67
2023/09/25 06:19:25;;;;;;;12.05;4.40;;;6.70;99.90;;;;;;5029063;28;20021;-67
2023/09/25 06:21:51;;;;;;;8.98;4.60;;;6.80;99.90;;;;;;5036661;28;20033;-67
2023/09/25 06:24:17;;;;;;;10.13;5.47;;;6.90;99.90;;;;;;5033746;28;20035;-68
2023/09/25 06:26:46;;;;;;;15.98;5.15;;;7.20;99.90;;;;;;5056924;28;20032;-68
2023/09/25 06:29:12;;;;;;;9.77;4.47;;;7.40;99.90;;;;;;5063925;28;20065;-68
2023/09/25 06:31:39;;;;;;;8.95;4.55;;;7.60;99.90;;;;;;5043820;28;20046;-68
2023/09/25 06:34:07;;;;;;;10.07;4.90;;;7.80;99.90;;;;;;5029122;28;20034;-68
2023/09/25 06:36:33;;;;;;;11.70;5.00;;;8.00;99.90;;;;;;5031782;28;20033;-66
2023/09/25 06:38:59;;;;;;;8.48;4.30;;;8.20;99.90;;;;;;5050239;28;20024;-67
2023/09/25 06:41:26;;;;;;;7.63;3.95;;;8.30;99.90;;;;;;5055334;28;20382;-67
2023/09/25 06:43:51;;;;;;;8.10;4.90;;;8.50;99.90;;;;;;5040113;28;20033;-66
2023/09/25 06:46:17;;;;;;;11.40;5.78;;;8.60;99.90;;;;;;5035960;28;20029;-66
2023/09/25 06:48:43;;;;;;;10.90;5.57;;;9.00;99.90;;;;;;5036282;28;20033;-67
2023/09/25 06:51:09;;;;;;;10.63;5.80;;;9.30;99.90;;;;;;5043231;28;20106;-66
2023/09/25 06:53:35;;;;;;;13.13;5.50;;;9.70;99.90;;;;;;5055249;28;20043;-66
2023/09/25 06:56:01;;;;;;;10.68;5.43;;;10.00;99.90;;;;;;5046810;28;20021;-68
2023/09/25 06:58:26;;;;;;;10.32;5.15;;;10.30;99.90;;;;;;5046799;28;20063;-68
2023/09/25 07:00:52;;;;;;;11.73;5.75;;;10.40;99.90;;;;;;5043628;28;20029;-68
2023/09/25 07:03:18;;;;;;;11.50;5.43;;;10.60;99.90;;;;;;5035827;28;20033;-67
2023/09/25 07:05:44;;;;;;;13.40;5.25;;;10.90;99.90;;;;;;5027279;28;20037;-68
2023/09/25 07:08:11;;;;;;;8.73;5.15;;;11.10;99.90;;;;;;5041878;28;20448;-67
2023/09/25 07:10:37;;;;;;;9.38;5.18;;;11.20;99.90;;;;;;5036336;28;20531;-68
2023/09/25 07:13:03;;;;;;;9.20;5.40;;;11.40;99.90;;;;;;5040030;28;20033;-68
2023/09/25 07:15:30;;;;;;;9.32;4.80;;;11.60;99.90;;;;;;5032583;28;20060;-68
2023/09/25 07:17:56;;;;;;;9.43;4.55;;;11.70;99.90;;;;;;5027584;28;20026;-68
2023/09/25 07:20:21;;;;;;;8.18;4.57;;;11.80;99.90;;;;;;5030408;28;20037;-68
2023/09/25 07:22:47;;;;;;;13.25;4.82;;;12.00;99.90;;;;;;5060475;28;20536;-68
2023/09/25 07:25:14;;;;;;;10.88;4.90;;;12.00;99.90;;;;;;5055643;28;20064;-68
2023/09/25 07:27:40;;;;;;;8.18;4.68;;;12.20;99.90;;;;;;5039764;28;20428;-68
2023/09/25 07:30:08;;;;;;;8.60;4.53;;;12.30;99.90;;;;;;5044576;28;20149;-66
2023/09/25 07:32:34;;;;;;;7.72;4.07;;;12.40;99.90;;;;;;5031572;28;20038;-69
2023/09/25 07:35:04;;;;;;;7.05;4.57;;;12.50;99.90;;;;;;5043376;28;20526;-65
2023/09/25 07:37:29;;;;;;;9.65;4.60;;;12.70;99.90;;;;;;5046262;28;20064;-66
2023/09/25 07:39:55;;;;;;;7.30;4.00;;;12.80;99.90;;;;;;5044158;28;20118;-68
2023/09/25 07:42:21;;;;;;;6.50;4.07;;;12.90;99.90;;;;;;5035494;28;20041;-67
2023/09/25 07:44:48;;;;;;;7.47;4.20;;;13.10;99.90;;;;;;5031441;28;20116;-67
2023/09/25 07:47:14;;;;;;;7.93;3.83;;;13.30;99.90;;;;;;5039522;28;20108;-67
2023/09/25 07:49:46;;;;;;;7.00;4.10;;;13.40;99.90;;;;;;5036413;28;20112;-68
2023/09/25 07:52:16;;;;;;;8.20;3.95;;;13.50;99.90;;;;;;5064056;28;20056;-69
2023/09/25 07:54:45;;;;;;;6.83;3.57;;;13.70;99.90;;;;;;5071160;28;20029;-69
2023/09/25 07:57:13;;;;;;;8.30;3.85;;;13.80;99.90;;;;;;5059494;28;20378;-67
2023/09/25 07:59:39;;;;;;;6.78;3.78;;;13.90;99.90;;;;;;5044807;28;20111;-67
2023/09/25 08:02:05;;;;;;;6.07;3.63;;;14.10;99.90;;;;;;5050646;28;20157;-68
2023/09/25 08:04:30;;;;;;;6.70;3.30;;;14.20;99.90;;;;;;5051445;28;20025;-67
2023/09/25 08:06:56;;;;;;;6.80;3.85;;;14.30;99.90;;;;;;5050513;28;20156;-66
2023/09/25 08:09:22;;;;;;;7.15;3.63;;;14.40;99.90;;;;;;5033567;28;20034;-67
2023/09/25 08:11:48;;;;;;;5.18;3.15;;;14.60;99.90;;;;;;5029858;28;20401;-67
2023/09/25 08:14:14;;;;;;;5.82;3.30;;;14.70;99.90;;;;;;5051208;28;20024;-67
2023/09/25 08:16:39;;;;;;;12.00;3.85;;;14.80;99.90;;;;;;5051144;28;20021;-66
2023/09/25 08:19:05;;;;;;;7.35;3.67;;;14.90;99.90;;;;;;5049261;28;20060;-67
2023/09/25 08:21:31;;;;;;;6.13;3.28;;;15.10;99.90;;;;;;5061735;28;20037;-67
2023/09/25 08:23:56;;;;;;;9.43;3.50;;;15.20;99.90;;;;;;5069952;28;20032;-67
2023/09/25 08:26:22;;;;;;;8.57;3.35;;;15.30;99.90;;;;;;5070837;28;20043;-66
2023/09/25 08:28:48;;;;;;;6.60;2.97;;;15.40;99.90;;;;;;5049455;28;20032;-67
2023/09/25 08:31:14;;;;;;;8.13;3.40;;;15.50;99.90;;;;;;5050667;28;20433;-67
2023/09/25 08:33:40;;;;;;;7.25;3.13;;;15.60;99.90;;;;;;5050874;28;20028;-67
2023/09/25 08:36:12;;;;;;;4.05;3.03;;;15.70;99.90;;;;;;5049954;28;20029;-67
2023/09/25 08:38:37;;;;;;;6.75;2.90;;;15.90;99.90;;;;;;5050954;28;20064;-66
2023/09/25 08:41:04;;;;;;;8.05;3.03;;;15.90;99.90;;;;;;5050060;28;20052;-66
2023/09/25 08:43:30;;;;;;;10.23;3.20;;;16.00;99.90;;;;;;5042060;28;20110;-67
2023/09/25 08:45:56;;;;;;;9.35;2.72;;;16.00;99.90;;;;;;5049710;28;20562;-67
2023/09/25 08:48:22;;;;;;;8.05;3.33;;;16.10;99.90;;;;;;5050564;28;20036;-68
2023/09/25 08:50:49;;;;;;;5.20;3.20;;;16.20;99.90;;;;;;5045640;28;20044;-68
2023/09/25 08:53:16;;;;;;;6.53;3.20;;;16.40;99.90;;;;;;5103047;28;20028;-68
2023/09/25 08:55:44;;;;;;;4.53;2.97;;;16.60;99.90;;;;;;5070545;28;20032;-68
2023/09/25 08:58:11;;;;;;;10.77;2.90;;;16.70;99.90;;;;;;5070106;28;20107;-68
2023/09/25 09:00:39;;;;;;;7.70;3.00;;;16.70;99.90;;;;;;5070249;28;20146;-68
2023/09/25 09:03:05;;;;;;;8.77;2.97;;;16.80;99.90;;;;;;5069580;28;20024;-68
2023/09/25 09:05:31;;;;;;;6.72;2.90;;;16.80;99.90;;;;;;5056912;28;20362;-68
2023/09/25 09:08:01;;;;;;;4.55;2.88;;;17.00;99.90;;;;;;5049545;28;20025;-68
2023/09/25 09:10:38;;;;;;;3.75;2.53;;;17.00;99.90;;;;;;5049877;28;20028;-68
2023/09/25 09:13:10;;;;;;;7.68;2.75;;;17.20;99.90;;;;;;5049335;28;20106;-67
2023/09/25 09:15:37;;;;;;;5.03;2.80;;;17.30;99.90;;;;;;5049984;28;20033;-67
2023/09/25 09:18:23;;;;;;;3.97;2.58;;;17.30;99.90;;;;;;5049162;28;20044;-67
2023/09/25 09:20:49;;;;;;;5.13;2.80;;;17.40;99.90;;;;;;5051259;28;20051;-67
2023/09/25 09:23:15;;;;;;;6.63;3.17;;;17.40;99.90;;;;;;5030473;28;20037;-67
2023/09/25 09:25:48;;;;;;;4.88;2.40;;;17.60;99.90;;;;;;5035029;28;20051;-69
2023/09/25 09:28:13;;;;;;;6.63;2.72;;;17.60;99.90;;;;;;5038270;28;20036;-68
2023/09/25 09:30:40;;;;;;;9.43;2.55;;;17.70;99.90;;;;;;5040794;28;20041;-67
2023/09/25 09:33:09;;;;;;;5.32;2.60;;;17.80;99.90;;;;;;5028577;28;20608;-68
2023/09/25 09:35:35;;;;;;;4.57;2.72;;;18.00;99.90;;;;;;5031466;28;20083;-67
2023/09/25 09:38:04;;;;;;;4.63;2.55;;;18.00;99.90;;;;;;5028939;28;20034;-66
2023/09/25 09:40:30;;;;;;;5.80;2.63;;;18.10;99.90;;;;;;5034770;28;20431;-67
2023/09/25 09:42:56;;;;;;;6.72;2.90;;;18.10;99.90;;;;;;5035392;28;20034;-67
2023/09/25 09:45:22;;;;;;;7.47;2.80;;;18.00;99.90;;;;;;5029747;28;20834;-68
2023/09/25 09:47:50;;;;;;;4.97;2.50;;;18.10;99.90;;;;;;5048006;28;20079;-67
2023/09/25 09:50:26;;;;;;;4.80;2.50;;;18.40;99.90;;;;;;5047982;28;20410;-69
2023/09/25 09:52:52;;;;;;;8.23;2.58;;;18.50;99.90;;;;;;5028869;28;20450;-67
2023/09/25 09:55:21;;;;;;;4.82;2.30;;;18.60;99.90;;;;;;5033537;28;20039;-69
2023/09/25 09:57:49;;;;;;;6.60;2.47;;;18.60;99.90;;;;;;5041736;28;20028;-67
2023/09/25 10:00:17;;;;;;;3.53;2.28;;;18.60;99.90;;;;;;5031660;28;20162;-67
2023/09/25 10:02:45;;;;;;;6.32;2.55;;;18.70;99.90;;;;;;5038730;28;20036;-68
2023/09/25 10:05:13;;;;;;;4.20;2.15;;;18.80;99.90;;;;;;5035672;28;20050;-67
2023/09/25 10:08:09;;;;;;;7.05;2.17;;;18.90;99.90;;;;;;5035861;28;20021;-68
2023/09/25 10:10:41;;;;;;;10.38;2.83;;;19.10;99.90;;;;;;5037394;28;20681;-67
2023/09/25 10:13:18;;;;;;;7.07;2.45;;;19.10;99.90;;;;;;5031968;28;20033;-68
2023/09/25 10:16:04;;;;;;;5.00;2.30;;;19.20;99.90;;;;;;5046294;28;20031;-67
2023/09/25 10:18:30;;;;;;;4.47;2.42;;;19.40;99.90;;;;;;5036252;28;20044;-67
2023/09/25 10:21:10;;;;;;;4.40;2.17;;;19.40;99.90;;;;;;5045295;28;20053;-68
2023/09/25 10:23:39;;;;;;;3.27;2.10;;;19.50;99.90;;;;;;5040102;28;20391;-67
2023/09/25 10:26:19;;;;;;;3.60;2.03;;;19.70;99.90;;;;;;5040755;28;20268;-67
2023/09/25 10:28:55;;;;;;;5.20;2.60;;;19.90;99.90;;;;;;5033129;28;20021;-67
2023/09/25 10:31:24;;;;;;;4.80;1.90;;;19.60;99.90;;;;;;5030483;28;20045;-67
2023/09/25 10:33:59;;;;;;;3.40;2.10;;;19.70;99.90;;;;;;5028367;28;20037;-68
2023/09/25 10:36:42;;;;;;;4.55;2.20;;;19.90;99.90;;;;;;5029440;28;20030;-67
2023/09/25 10:39:09;;;;;;;6.00;2.20;;;19.90;99.90;;;;;;5031948;28;20029;-67
2023/09/25 10:41:36;;;;;;;6.13;2.05;;;19.90;99.90;;;;;;5033290;28;20053;-67
2023/09/25 10:44:02;;;;;;;8.30;2.20;;;20.10;99.90;;;;;;5027816;28;20045;-68
2023/09/25 10:46:27;;;;;;;2.97;1.95;;;20.20;99.90;;;;;;5028393;28;20386;-68
2023/09/25 10:48:56;;;;;;;8.90;2.40;;;20.40;99.20;;;;;;5027882;28;20115;-68
2023/09/25 10:51:22;;;;;;;3.97;2.00;;;20.60;99.90;;;;;;5041511;28;20098;-67
2023/09/25 10:53:48;;;;;;;7.07;1.98;;;20.70;98.40;;;;;;5047176;28;20033;-68
2023/09/25 10:56:16;;;;;;;5.30;1.92;;;20.50;98.70;;;;;;5046839;28;20359;-67
2023/09/25 10:58:47;;;;;;;5.35;2.10;;;20.40;99.20;;;;;;5048460;28;20025;-67
2023/09/25 11:01:14;;;;;;;4.07;2.30;;;20.50;99.30;;;;;;5028273;28;20606;-68
2023/09/25 11:03:40;;;;;;;4.18;2.00;;;20.60;99.20;;;;;;5028738;28;20061;-68
2023/09/25 11:06:07;;;;;;;3.00;1.95;;;20.90;99.90;;;;;;5027739;28;20398;-67
2023/09/25 11:08:34;;;;;;;5.50;2.10;;;21.10;98.20;;;;;;5027999;28;20026;-67
2023/09/25 11:11:02;;;;;;;4.53;2.40;;;21.20;97.00;;;;;;5032936;28;20044;-68
2023/09/25 11:13:28;;;;;;;6.03;2.10;;;21.50;99.30;;;;;;5032237;28;20075;-67
2023/09/25 11:15:55;;;;;;;3.50;1.98;;;21.70;97.30;;;;;;5048222;28;20100;-69
2023/09/25 11:18:21;;;;;;;4.38;1.83;;;21.50;95.20;;;;;;5036007;28;20018;-67
2023/09/25 11:20:48;;;;;;;5.70;2.00;;;21.30;96.10;;;;;;5037465;28;20109;-69
2023/09/25 11:23:17;;;;;;;6.85;2.08;;;21.30;96.50;;;;;;5051022;28;20841;-68
2023/09/25 11:25:45;;;;;;;4.45;1.90;;;21.60;96.20;;;;;;5046968;28;20035;-67
2023/09/25 11:28:16;;;;;;;4.07;2.10;;;21.70;94.80;;;;;;5031155;28;20872;-68
2023/09/25 11:30:46;;;;;;;2.58;1.85;;;21.70;95.90;;;;;;5038519;28;20036;-68
2023/09/25 11:33:13;;;;;;;4.43;1.83;;;22.00;95.60;;;;;;5051198;28;20095;-68
2023/09/25 11:35:39;;;;;;;3.55;2.20;;;21.80;93.80;;;;;;5051209;28;20025;-68
2023/09/25 11:38:21;;;;;;;4.15;1.92;;;21.80;95.10;;;;;;5050761;28;20075;-68
2023/09/25 11:40:50;;;;;;;3.88;1.90;;;21.90;95.60;;;;;;5050125;28;20099;-67
2023/09/25 11:43:16;;;;;;;4.32;2.20;;;21.90;94.20;;;;;;5043406;28;20087;-68
2023/09/25 11:45:43;;;;;;;5.30;1.90;;;21.50;94.60;;;;;;5045577;28;20025;-69
2023/09/25 11:48:09;;;;;;;3.17;1.77;;;21.40;94.20;;;;;;5042477;28;20028;-68
2023/09/25 11:50:35;;;;;;;6.72;1.77;;;21.40;94.70;;;;;;5041772;28;20109;-66
2023/09/25 11:53:01;;;;;;;4.50;1.90;;;21.30;94.10;;;;;;5030418;28;20026;-67
2023/09/25 11:55:28;;;;;;;4.65;1.88;;;21.60;94.00;;;;;;5032022;28;20470;-68
2023/09/25 11:57:54;;;;;;;3.80;1.85;;;21.80;95.30;;;;;;5038399;28;20139;-68
2023/09/25 12:00:22;;;;;;;2.95;1.67;;;22.20;94.60;;;;;;5052686;28;20108;-68
2023/09/25 12:02:48;;;;;;;3.00;1.73;;;22.40;93.60;;;;;;5031218;28;20080;-68
2023/09/25 12:05:18;;;;;;;3.15;2.03;;;22.70;94.30;;;;;;5030744;28;20103;-68
2023/09/25 12:07:44;;;;;;;4.40;2.20;;;22.50;92.10;;;;;;5031286;28;20478;-70
2023/09/25 12:10:15;;;;;;;3.85;2.00;;;22.50;93.00;;;;;;5030726;28;20033;-68
2023/09/25 12:12:41;;;;;;;5.45;2.30;;;22.60;93.10;;;;;;5031555;28;20044;-68
2023/09/25 12:15:08;;;;;;;3.15;2.05;;;22.50;93.80;;;;;;5030643;28;20030;-69
2023/09/25 12:17:37;;;;;;;3.92;2.17;;;22.30;93.80;;;;;;5031847;28;20021;-69
2023/09/25 12:20:12;;;;;;;4.50;2.20;;;21.80;93.70;;;;;;5030920;28;20041;-69
2023/09/25 12:22:42;;;;;;;2.90;1.98;;;21.90;94.90;;;;;;5070829;28;20032;-68
2023/09/25 12:25:12;;;;;;;3.50;2.00;;;22.10;94.00;;;;;;5070212;28;20032;-68
2023/09/25 12:27:41;;;;;;;3.80;2.22;;;21.70;93.50;;;;;;5071279;28;20020;-69
2023/09/25 12:30:15;;;;;;;3.20;2.20;;;22.20;95.00;;;;;;5070281;28;20032;-69
2023/09/25 12:32:48;;;;;;;4.28;2.55;;;22.30;94.00;;;;;;5070911;28;20056;-68
2023/09/25 12:35:15;;;;;;;5.65;2.00;;;22.40;93.80;;;;;;5041216;28;20841;-69
2023/09/25 12:37:42;;;;;;;6.88;2.17;;;22.50;92.80;;;;;;5031114;28;20030;-69
2023/09/25 12:40:09;;;;;;;2.70;1.88;;;22.60;93.30;;;;;;5030299;28;20112;-69
2023/09/25 12:42:34;;;;;;;4.28;2.10;;;22.30;94.40;;;;;;5030989;28;20033;-69
2023/09/25 12:45:00;;;;;;;4.82;2.15;;;22.50;94.10;;;;;;5030181;28;20037;-69
2023/09/25 12:47:26;;;;;;;3.20;2.00;;;22.40;93.40;;;;;;5043550;28;20367;-69
2023/09/25 12:49:53;;;;;;;3.00;2.05;;;22.10;94.00;;;;;;5050656;28;20070;-69